Time;durP1;ratioP1;P1;durP2;ratioP2;P2;SDS_P1;SDS_P2;PMS_P1;PMS_P2;Temp;Humidity;BMP_temperature;BMP_pressure;BME280_temperature;BME280_humidity;BME280_pressure;Samples;Min_cycle;Max_cycle;Signal;HPM_P1;HPM_P2
2021/03/25 00:04:47;;;;;;;17.85;6.97;;;7.30;99.90;;;;;;10367162;28;20034;-49
2021/03/25 00:10:13;;;;;;;23.35;7.60;;;7.40;99.90;;;;;;10359867;28;20054;-48
2021/03/25 00:15:35;;;;;;;15.73;6.88;;;7.50;99.90;;;;;;10366804;28;20045;-48
2021/03/25 00:20:56;;;;;;;15.85;6.07;;;7.50;99.90;;;;;;10350023;28;20128;-49
2021/03/25 00:26:17;;;;;;;21.40;6.47;;;7.60;99.90;;;;;;10367713;28;20081;-49
2021/03/25 00:31:39;;;;;;;15.68;7.00;;;7.60;99.90;;;;;;10367944;28;20044;-49
2021/03/25 00:37:01;;;;;;;17.83;8.13;;;7.50;99.90;;;;;;10365561;28;20045;-49
2021/03/25 00:42:22;;;;;;;21.25;6.85;;;7.50;99.90;;;;;;10367318;28;20509;-49
2021/03/25 00:47:43;;;;;;;19.20;7.28;;;7.60;99.90;;;;;;10366768;28;20381;-49
2021/03/25 00:53:06;;;;;;;23.63;7.57;;;7.50;99.90;;;;;;10338681;28;20515;-49
2021/03/25 00:58:27;;;;;;;21.48;8.55;;;7.50;99.90;;;;;;10366094;28;20103;-48
2021/03/25 01:03:48;;;;;;;21.10;8.68;;;7.50;99.90;;;;;;10362080;28;20053;-49
2021/03/25 01:09:28;;;;;;;20.67;6.95;;;7.50;99.90;;;;;;10362088;28;20504;-49
2021/03/25 01:14:49;;;;;;;17.00;6.60;;;7.50;99.90;;;;;;10349134;28;20137;-48
2021/03/25 01:20:23;;;;;;;18.45;7.47;;;7.50;99.90;;;;;;10361058;28;20030;-49
2021/03/25 01:25:44;;;;;;;24.70;7.60;;;7.50;99.90;;;;;;10334564;28;20049;-49
2021/03/25 01:31:05;;;;;;;24.00;9.52;;;7.40;99.90;;;;;;10356555;28;20037;-49
2021/03/25 01:36:26;;;;;;;18.77;7.75;;;7.40;99.90;;;;;;10359826;28;20057;-48
2021/03/25 01:41:47;;;;;;;21.77;7.65;;;7.30;99.90;;;;;;10367342;28;20472;-49
2021/03/25 01:47:10;;;;;;;19.55;7.63;;;7.20;99.90;;;;;;10368054;28;20045;-49
2021/03/25 01:52:46;;;;;;;22.83;6.93;;;7.20;99.90;;;;;;10358263;28;20392;-49
2021/03/25 01:58:19;;;;;;;18.38;6.78;;;7.20;99.90;;;;;;10327176;28;20537;-49
2021/03/25 02:03:52;;;;;;;17.02;7.10;;;7.10;99.90;;;;;;10321567;28;20464;-48
2021/03/25 02:09:40;;;;;;;21.58;7.03;;;7.10;99.90;;;;;;10322148;28;20049;-48
2021/03/25 02:15:17;;;;;;;18.23;8.50;;;6.90;99.90;;;;;;10367778;28;20037;-48
2021/03/25 02:21:01;;;;;;;17.80;7.15;;;6.90;99.90;;;;;;10360275;28;20119;-48
2021/03/25 02:26:32;;;;;;;22.73;7.95;;;6.90;99.90;;;;;;10356662;28;20052;-49
2021/03/25 02:32:00;;;;;;;26.55;8.20;;;6.80;99.90;;;;;;10361595;28;20029;-49
2021/03/25 02:37:30;;;;;;;20.92;6.95;;;6.90;99.90;;;;;;10349903;28;20044;-49
2021/03/25 02:43:17;;;;;;;17.23;7.18;;;6.90;99.90;;;;;;10333260;28;20046;-49
2021/03/25 02:48:41;;;;;;;16.67;6.97;;;6.90;99.90;;;;;;10323238;28;20038;-48
2021/03/25 02:54:02;;;;;;;25.00;8.43;;;7.00;99.90;;;;;;10335202;28;20579;-48
2021/03/25 02:59:32;;;;;;;17.60;7.85;;;7.10;99.90;;;;;;10345735;28;20053;-48
2021/03/25 03:05:00;;;;;;;19.58;6.97;;;7.10;99.90;;;;;;10366042;28;20046;-49
2021/03/25 03:10:27;;;;;;;26.02;6.88;;;7.10;99.90;;;;;;10372364;28;20058;-49
2021/03/25 03:15:54;;;;;;;25.35;7.75;;;7.20;99.90;;;;;;10366095;28;20518;-48
2021/03/25 03:21:24;;;;;;;22.35;7.47;;;7.20;99.90;;;;;;10356266;28;20050;-49
2021/03/25 03:27:16;;;;;;;21.90;7.95;;;7.20;99.90;;;;;;10361629;28;20413;-49
2021/03/25 03:32:45;;;;;;;22.27;7.55;;;7.20;99.90;;;;;;10364032;28;20424;-49
2021/03/25 03:38:38;;;;;;;22.75;8.23;;;7.20;99.90;;;;;;10348897;28;20441;-48
2021/03/25 03:44:04;;;;;;;26.02;8.68;;;7.20;99.90;;;;;;10373098;28;20033;-49
2021/03/25 03:49:44;;;;;;;20.38;6.97;;;7.20;99.90;;;;;;10365328;28;20069;-49
2021/03/25 03:55:08;;;;;;;21.27;8.10;;;7.30;99.90;;;;;;10369693;28;20045;-49
2021/03/25 04:00:34;;;;;;;20.65;9.20;;;7.30;99.90;;;;;;10359064;28;20033;-49
2021/03/25 04:06:18;;;;;;;22.95;8.43;;;7.40;99.90;;;;;;10334071;28;20100;-49
2021/03/25 04:11:55;;;;;;;23.35;9.55;;;7.40;99.90;;;;;;10320262;28;20481;-49
2021/03/25 04:17:25;;;;;;;27.45;8.68;;;7.40;99.90;;;;;;10323697;28;20054;-49
2021/03/25 04:22:52;;;;;;;20.88;8.10;;;7.50;99.90;;;;;;10323911;28;20231;-49
2021/03/25 04:28:27;;;;;;;29.05;8.85;;;7.50;99.90;;;;;;10321969;28;20042;-49
2021/03/25 04:33:48;;;;;;;27.67;9.43;;;7.40;99.90;;;;;;10320089;28;20049;-48
2021/03/25 04:39:11;;;;;;;22.98;8.00;;;7.30;99.90;;;;;;10319947;28;20073;-49
2021/03/25 04:45:08;;;;;;;26.30;9.57;;;7.30;99.90;;;;;;10322304;28;20052;-49
2021/03/25 04:50:37;;;;;;;30.35;8.95;;;7.40;99.90;;;;;;10316597;28;20038;-49
2021/03/25 04:56:01;;;;;;;24.80;8.15;;;7.40;99.90;;;;;;10354622;28;20413;-49
2021/03/25 05:01:25;;;;;;;27.88;8.35;;;7.40;99.90;;;;;;10369616;28;20041;-49
2021/03/25 05:06:51;;;;;;;29.65;9.10;;;7.40;99.90;;;;;;10353376;28;20632;-49
2021/03/25 05:12:15;;;;;;;27.05;8.30;;;7.40;99.90;;;;;;10353803;28;20499;-49
2021/03/25 05:17:55;;;;;;;25.77;8.85;;;7.40;99.90;;;;;;10365316;28;20052;-49
2021/03/25 05:23:39;;;;;;;24.85;9.27;;;7.30;99.90;;;;;;10333869;28;20431;-49
2021/03/25 05:29:04;;;;;;;30.83;9.70;;;7.30;99.90;;;;;;10359729;28;20525;-49
2021/03/25 05:34:26;;;;;;;25.60;10.50;;;7.30;99.90;;;;;;10354463;28;20041;-49
2021/03/25 05:39:47;;;;;;;34.92;10.45;;;7.30;99.90;;;;;;10361038;28;20042;-49
2021/03/25 05:45:37;;;;;;;33.58;9.65;;;7.30;99.90;;;;;;10360127;28;20045;-49
2021/03/25 05:51:08;;;;;;;32.95;9.70;;;7.40;99.90;;;;;;10362509;28;20497;-49
2021/03/25 05:56:53;;;;;;;28.10;11.55;;;7.20;99.90;;;;;;10362842;28;20510;-49
2021/03/25 06:02:32;;;;;;;28.55;8.77;;;7.20;99.90;;;;;;10361764;28;20515;-49
2021/03/25 06:08:18;;;;;;;26.50;9.38;;;7.10;99.90;;;;;;10352888;28;20072;-49
2021/03/25 06:13:48;;;;;;;31.85;10.73;;;7.20;99.90;;;;;;10359087;28;20049;-48
2021/03/25 06:19:25;;;;;;;36.33;12.07;;;7.20;99.90;;;;;;10372658;28;20041;-49
2021/03/25 06:25:20;;;;;;;46.47;12.95;;;7.20;99.90;;;;;;10354905;28;20125;-49
2021/03/25 06:31:06;;;;;;;26.08;8.90;;;7.20;99.90;;;;;;10369114;28;20045;-49
2021/03/25 06:36:54;;;;;;;28.15;8.00;;;7.40;99.90;;;;;;10375025;28;20389;-49
2021/03/25 06:42:23;;;;;;;23.08;8.63;;;7.50;99.90;;;;;;10371005;28;20038;-49
2021/03/25 06:47:52;;;;;;;26.38;7.35;;;7.60;99.90;;;;;;10383517;28;20045;-49
2021/03/25 06:53:13;;;;;;;;;;;7.80;99.90;;;;;;10386260;28;20063;-48
2021/03/25 06:58:51;;;;;;;25.98;8.48;;;7.90;99.90;;;;;;10371265;28;19921;-49
2021/03/25 07:04:26;;;;;;;18.77;7.53;;;8.00;99.90;;;;;;10382614;28;20046;-49
2021/03/25 07:09:47;;;;;;;19.63;7.90;;;7.90;99.90;;;;;;10387340;28;20092;-49
2021/03/25 07:15:22;;;;;;;23.20;7.70;;;7.90;99.90;;;;;;10377792;28;20430;-49
2021/03/25 07:20:43;;;;;;;24.48;7.55;;;7.90;99.90;;;;;;10375790;28;20034;-49
2021/03/25 07:26:40;;;;;;;27.25;8.98;;;8.00;99.90;;;;;;10382512;28;20042;-49
2021/03/25 07:32:04;;;;;;;29.13;8.07;;;8.20;99.90;;;;;;10382508;28;20050;-49
2021/03/25 07:37:37;;;;;;;25.90;8.73;;;8.30;99.90;;;;;;10385299;28;20045;-49
2021/03/25 07:43:13;;;;;;;24.90;7.95;;;8.40;99.90;;;;;;10383229;28;20519;-49
2021/03/25 07:48:35;;;;;;;17.40;6.70;;;8.60;99.90;;;;;;10369415;28;20462;-49
2021/03/25 07:54:24;;;;;;;21.02;8.38;;;8.80;99.90;;;;;;10391694;28;20116;-49
2021/03/25 07:59:51;;;;;;;18.90;7.77;;;9.10;99.90;;;;;;10376542;28;20048;-49
2021/03/25 08:05:24;;;;;;;21.08;8.73;;;9.40;99.90;;;;;;10384835;28;20050;-49
2021/03/25 08:10:48;;;;;;;17.90;8.15;;;9.40;99.90;;;;;;10378639;28;20438;-49
2021/03/25 08:16:12;;;;;;;18.92;7.28;;;9.40;99.90;;;;;;10381752;28;20077;-49
2021/03/25 08:21:48;;;;;;;32.08;9.50;;;9.30;99.90;;;;;;10343053;28;20030;-49
2021/03/25 08:27:40;;;;;;;23.60;10.02;;;9.30;99.90;;;;;;10332668;28;20513;-49
2021/03/25 08:33:11;;;;;;;23.63;8.30;;;9.20;99.90;;;;;;10344372;28;20096;-49
2021/03/25 08:38:39;;;;;;;23.98;7.30;;;9.10;99.90;;;;;;10395106;28;20041;-49
2021/03/25 08:44:00;;;;;;;27.30;9.25;;;9.20;99.90;;;;;;10383857;28;20037;-49
2021/03/25 08:49:34;;;;;;;22.75;9.23;;;9.20;99.90;;;;;;10366006;28;20116;-49
2021/03/25 08:55:20;;;;;;;23.60;8.55;;;9.30;99.90;;;;;;10394142;28;20029;-49
2021/03/25 09:00:45;;;;;;;21.95;6.75;;;9.30;99.90;;;;;;10376154;28;20128;-48
2021/03/25 09:06:16;;;;;;;23.60;8.30;;;9.60;99.90;;;;;;10374285;28;20057;-49
2021/03/25 09:11:37;;;;;;;20.50;7.72;;;9.70;99.90;;;;;;10372873;28;20049;-49
2021/03/25 09:17:08;;;;;;;28.80;9.68;;;9.70;99.90;;;;;;10362737;28;20120;-49
2021/03/25 09:22:48;;;;;;;24.25;8.73;;;9.90;99.90;;;;;;10375847;28;20065;-49
2021/03/25 09:28:19;;;;;;;19.92;7.93;;;10.10;99.90;;;;;;10365509;28;20033;-48
2021/03/25 09:33:49;;;;;;;32.22;9.80;;;10.40;99.90;;;;;;10376526;28;20025;-49
2021/03/25 09:39:23;;;;;;;21.63;8.90;;;10.40;99.90;;;;;;10372068;28;20048;-49
2021/03/25 09:44:45;;;;;;;20.10;8.10;;;10.30;99.90;;;;;;10359924;28;20070;-49
2021/03/25 09:50:22;;;;;;;22.58;8.35;;;10.40;99.90;;;;;;10371573;28;20115;-49
2021/03/25 09:56:17;;;;;;;25.55;9.15;;;10.10;99.90;;;;;;10384550;28;20652;-49
2021/03/25 10:01:41;;;;;;;21.30;7.45;;;10.20;99.90;;;;;;10370511;28;20125;-49
2021/03/25 10:07:12;;;;;;;23.08;6.82;;;10.20;99.90;;;;;;10377419;28;20448;-49
2021/03/25 10:13:03;;;;;;;19.05;6.68;;;10.30;99.90;;;;;;10366927;28;20054;-49
2021/03/25 10:18:24;;;;;;;17.95;6.55;;;10.40;99.90;;;;;;10372926;28;20083;-49
2021/03/25 10:23:51;;;;;;;17.15;6.53;;;10.30;99.90;;;;;;10386712;28;20595;-49
2021/03/25 10:29:12;;;;;;;23.05;7.53;;;10.20;99.90;;;;;;10375121;28;20041;-49
2021/03/25 10:34:38;;;;;;;19.75;5.50;;;10.20;99.90;;;;;;10399647;28;20041;-49
2021/03/25 10:40:15;;;;;;;16.98;6.05;;;10.20;99.90;;;;;;10399657;28;20503;-49
2021/03/25 10:45:45;;;;;;;13.55;5.70;;;10.30;99.90;;;;;;10388426;28;20132;-49
2021/03/25 10:51:18;;;;;;;18.85;6.95;;;10.30;99.90;;;;;;10387846;28;20408;-49
2021/03/25 10:56:40;;;;;;;16.63;5.50;;;10.30;99.90;;;;;;10380102;28;20048;-49
2021/03/25 11:02:02;;;;;;;13.38;6.20;;;10.30;99.90;;;;;;10378921;28;20053;-49
2021/03/25 11:07:24;;;;;;;19.98;7.97;;;10.40;99.90;;;;;;10376718;28;20124;-49
2021/03/25 11:12:45;;;;;;;20.25;5.45;;;10.40;99.90;;;;;;10391884;28;20045;-49
2021/03/25 11:18:47;;;;;;;20.58;6.82;;;10.40;99.90;;;;;;10370957;28;20120;-49
2021/03/25 11:24:24;;;;;;;15.00;6.05;;;10.50;99.90;;;;;;10362256;28;20037;-49
2021/03/25 11:29:46;;;;;;;14.18;5.57;;;10.20;99.90;;;;;;10380610;28;20032;-49
2021/03/25 11:35:19;;;;;;;20.83;6.97;;;10.00;99.90;;;;;;10385027;28;20113;-49
2021/03/25 11:40:43;;;;;;;13.93;5.80;;;10.00;99.90;;;;;;10379606;28;20033;-49
2021/03/25 11:46:04;;;;;;;18.08;5.45;;;10.10;99.90;;;;;;10382274;28;20064;-49
2021/03/25 11:51:25;;;;;;;11.23;4.78;;;10.10;99.90;;;;;;10378633;28;22090;-49
2021/03/25 11:56:49;;;;;;;13.02;4.20;;;10.20;99.90;;;;;;10373575;28;20464;-49
2021/03/25 12:02:25;;;;;;;13.45;5.25;;;10.20;99.90;;;;;;10363516;28;20033;-49
2021/03/25 12:07:46;;;;;;;15.88;5.00;;;10.30;99.90;;;;;;10342201;28;20053;-49
2021/03/25 12:13:09;;;;;;;14.35;5.95;;;10.50;99.90;;;;;;10365137;28;20045;-49
2021/03/25 12:18:43;;;;;;;11.88;4.80;;;10.70;99.90;;;;;;10348769;28;20049;-49
2021/03/25 12:24:05;;;;;;;14.93;5.40;;;11.40;99.90;;;;;;10335649;28;20034;-49
2021/03/25 12:29:26;;;;;;;11.57;4.57;;;12.40;99.90;;;;;;10332287;28;20185;-49
2021/03/25 12:34:47;;;;;;;8.30;3.60;;;12.90;99.90;;;;;;10338455;28;20286;-50
2021/03/25 12:40:09;;;;;;;9.07;3.65;;;13.10;99.90;;;;;;10335945;28;20030;-50
2021/03/25 12:45:36;;;;;;;8.95;3.95;;;13.40;99.90;;;;;;10330025;28;20038;-49
2021/03/25 12:50:58;;;;;;;12.52;3.67;;;13.40;99.90;;;;;;10333855;28;20042;-49
2021/03/25 12:56:29;;;;;;;9.43;4.13;;;13.00;99.90;;;;;;10363371;28;20362;-49
2021/03/25 13:01:50;;;;;;;9.07;3.03;;;15.00;99.90;;;;;;10360473;28;20529;-49
2021/03/25 13:07:11;;;;;;;3.95;1.63;;;16.20;99.90;;;;;;10375237;28;20037;-49
2021/03/25 13:12:32;;;;;;;6.03;2.15;;;15.90;99.90;;;;;;10376220;28;20079;-49
2021/03/25 13:17:53;;;;;;;4.03;2.30;;;15.20;99.90;;;;;;10382511;28;20036;-49
2021/03/25 13:23:15;;;;;;;5.15;1.52;;;16.00;99.90;;;;;;10369055;28;20042;-49
2021/03/25 13:28:37;;;;;;;5.38;1.85;;;14.40;99.90;;;;;;10366526;28;20045;-49
2021/03/25 13:33:58;;;;;;;2.17;1.15;;;13.80;99.90;;;;;;10370442;28;20045;-49
2021/03/25 13:39:19;;;;;;;1.67;0.70;;;13.80;99.90;;;;;;10364311;28;20416;-49
2021/03/25 13:44:40;;;;;;;5.95;0.50;;;15.20;99.90;;;;;;10371656;28;20034;-49
2021/03/25 13:50:02;;;;;;;3.20;1.00;;;15.60;95.50;;;;;;10372077;28;20037;-49
2021/03/25 13:55:39;;;;;;;7.22;0.63;;;17.50;78.30;;;;;;10358591;28;20034;-49
2021/03/25 14:01:02;;;;;;;1.65;0.40;;;17.70;68.90;;;;;;10367193;28;20489;-49
2021/03/25 14:06:23;;;;;;;0.75;0.25;;;18.40;69.50;;;;;;10375407;28;20115;-49
2021/03/25 14:11:45;;;;;;;1.45;0.30;;;17.30;66.60;;;;;;10367574;28;20080;-50
2021/03/25 14:17:06;;;;;;;1.15;0.22;;;17.20;72.90;;;;;;10367998;28;20485;-49
2021/03/25 14:22:27;;;;;;;2.42;0.75;;;17.90;60.10;;;;;;10368709;28;20053;-49
2021/03/25 14:27:48;;;;;;;4.60;0.30;;;17.70;58.70;;;;;;10367635;28;20126;-49
2021/03/25 14:33:10;;;;;;;1.50;0.60;;;17.50;61.60;;;;;;10346422;28;20601;-49
2021/03/25 14:38:31;;;;;;;0.98;0.32;;;17.00;66.60;;;;;;10378503;28;20049;-49
2021/03/25 14:43:52;;;;;;;2.67;0.63;;;16.70;71.60;;;;;;10379461;28;20447;-49
2021/03/25 14:49:13;;;;;;;0.25;0.15;;;16.00;80.90;;;;;;10376392;28;20049;-49
2021/03/25 14:54:34;;;;;;;2.33;0.52;;;15.20;82.90;;;;;;10361201;28;20076;-49
2021/03/25 14:59:55;;;;;;;5.82;0.80;;;15.10;88.50;;;;;;10377116;28;20483;-49
2021/03/25 15:05:17;;;;;;;0.63;0.20;;;15.00;93.60;;;;;;10362396;28;20342;-49
2021/03/25 15:10:39;;;;;;;1.38;0.13;;;14.60;75.40;;;;;;10359730;28;20071;-49
2021/03/25 15:16:00;;;;;;;0.50;0.10;;;14.40;78.10;;;;;;10378428;28;20628;-49
2021/03/25 15:21:22;;;;;;;1.48;0.20;;;13.90;73.60;;;;;;10376547;28;20313;-49
2021/03/25 15:26:43;;;;;;;0.38;0.10;;;13.90;87.90;;;;;;10366457;28;20485;-49
2021/03/25 15:32:05;;;;;;;0.57;0.20;;;13.80;84.90;;;;;;10375401;28;20038;-49
2021/03/25 15:37:26;;;;;;;0.30;0.10;;;13.60;90.40;;;;;;10374619;28;20041;-49
2021/03/25 15:42:47;;;;;;;0.10;0.10;;;13.60;85.60;;;;;;10367845;28;20045;-49
2021/03/25 15:48:10;;;;;;;3.30;0.38;;;13.50;86.00;;;;;;10365418;28;20497;-48
2021/03/25 15:53:33;;;;;;;1.67;0.40;;;13.50;93.20;;;;;;10366364;28;20038;-48
2021/03/25 15:58:54;;;;;;;2.55;0.73;;;13.30;93.10;;;;;;10364302;28;20441;-48
2021/03/25 16:04:15;;;;;;;2.17;0.30;;;13.20;91.50;;;;;;10365329;28;20045;-49
2021/03/25 16:09:40;;;;;;;1.05;0.20;;;12.90;93.70;;;;;;10332624;28;20632;-48
2021/03/25 16:15:02;;;;;;;1.77;0.25;;;13.00;93.90;;;;;;10332584;28;20076;-49
2021/03/25 16:20:25;;;;;;;0.13;0.10;;;12.80;96.20;;;;;;10332061;28;20034;-49
2021/03/25 16:25:47;;;;;;;0.35;0.13;;;12.70;95.30;;;;;;10334848;28;20042;-49
2021/03/25 16:31:09;;;;;;;1.25;0.40;;;12.60;97.00;;;;;;10330264;28;20057;-49
2021/03/25 16:36:30;;;;;;;1.35;0.40;;;12.40;99.00;;;;;;10331700;28;20134;-49
2021/03/25 16:41:54;;;;;;;4.45;0.60;;;12.40;98.90;;;;;;10333464;28;20486;-49
2021/03/25 16:47:16;;;;;;;2.42;0.60;;;12.30;99.90;;;;;;10358764;28;20072;-49
2021/03/25 16:52:37;;;;;;;1.00;0.35;;;12.20;99.90;;;;;;10372600;28;20037;-50
2021/03/25 16:57:57;;;;;;;1.30;0.40;;;12.10;99.90;;;;;;10369243;28;20100;-49
2021/03/25 17:03:20;;;;;;;2.55;0.43;;;12.10;99.90;;;;;;10370220;28;20107;-49
2021/03/25 17:08:41;;;;;;;1.83;0.52;;;12.00;99.90;;;;;;10367910;28;20033;-49
2021/03/25 17:14:02;;;;;;;2.92;0.40;;;11.80;99.90;;;;;;10377845;28;20508;-48
2021/03/25 17:19:23;;;;;;;1.77;0.80;;;11.80;99.90;;;;;;10378195;28;20037;-49
2021/03/25 17:24:44;;;;;;;5.28;0.85;;;11.60;99.90;;;;;;10368990;28;20072;-49
2021/03/25 17:30:07;;;;;;;1.50;0.32;;;11.30;99.90;;;;;;10370942;28;20037;-48
2021/03/25 17:35:30;;;;;;;3.42;0.90;;;11.20;99.90;;;;;;10363128;28;20030;-48
2021/03/25 17:40:51;;;;;;;3.38;0.40;;;11.10;99.90;;;;;;10364370;28;20044;-49
2021/03/25 17:46:13;;;;;;;4.57;0.45;;;11.10;99.90;;;;;;10354402;28;20049;-49
2021/03/25 17:51:34;;;;;;;2.00;0.40;;;10.90;99.90;;;;;;10350383;28;20033;-49
2021/03/25 17:56:55;;;;;;;2.50;0.45;;;10.80;99.90;;;;;;10357478;28;20033;-48
2021/03/25 18:02:16;;;;;;;3.17;0.45;;;10.70;99.90;;;;;;10350687;28;20025;-48
2021/03/25 18:07:37;;;;;;;1.10;0.17;;;10.50;99.90;;;;;;10348112;28;20053;-48
2021/03/25 18:12:58;;;;;;;1.27;0.45;;;10.40;99.90;;;;;;10351139;28;20052;-48
2021/03/25 18:18:19;;;;;;;0.60;0.20;;;10.10;99.90;;;;;;10365306;28;20038;-49
2021/03/25 18:23:40;;;;;;;2.03;0.30;;;10.20;99.90;;;;;;10368315;28;20059;-48
2021/03/25 18:29:09;;;;;;;0.80;0.38;;;10.00;99.90;;;;;;10361258;28;20045;-49
2021/03/25 18:34:30;;;;;;;0.75;0.30;;;9.80;99.90;;;;;;10361427;28;20037;-49
2021/03/25 18:39:51;;;;;;;1.88;0.30;;;9.70;99.90;;;;;;10357226;28;20048;-48
2021/03/25 18:45:22;;;;;;;2.40;0.98;;;9.60;99.90;;;;;;10353665;28;20884;-48
2021/03/25 18:50:44;;;;;;;0.73;0.20;;;9.50;99.90;;;;;;10333022;28;20158;-49
2021/03/25 18:56:06;;;;;;;2.35;0.70;;;9.40;99.90;;;;;;10349744;28;20071;-48
2021/03/25 19:01:28;;;;;;;1.85;0.68;;;9.30;99.90;;;;;;10346272;28;20041;-49
2021/03/25 19:06:49;;;;;;;6.00;1.70;;;9.30;99.90;;;;;;10349290;28;20037;-49
2021/03/25 19:12:10;;;;;;;2.25;0.80;;;9.30;99.90;;;;;;10339355;28;20103;-49
2021/03/25 19:17:31;;;;;;;1.58;0.65;;;9.30;99.90;;;;;;10346863;28;20038;-48
2021/03/25 19:22:54;;;;;;;4.40;0.85;;;9.20;99.90;;;;;;10346303;28;20896;-49
2021/03/25 19:28:15;;;;;;;2.47;1.10;;;9.20;99.90;;;;;;10348142;28;20042;-48
2021/03/25 19:33:36;;;;;;;3.08;1.27;;;9.20;99.90;;;;;;10332374;28;21996;-49
2021/03/25 19:38:57;;;;;;;6.28;0.80;;;9.20;99.90;;;;;;10369168;28;20112;-49
2021/03/25 19:44:19;;;;;;;1.13;0.50;;;9.10;99.90;;;;;;10346417;28;20405;-49
2021/03/25 19:49:40;;;;;;;1.92;0.68;;;8.90;99.90;;;;;;10347963;28;20631;-48
2021/03/25 19:55:02;;;;;;;1.75;0.60;;;8.90;99.90;;;;;;10330464;28;20038;-48
2021/03/25 20:00:24;;;;;;;7.35;1.20;;;8.80;99.90;;;;;;10336944;28;20037;-49
2021/03/25 20:05:48;;;;;;;3.63;1.13;;;8.70;99.90;;;;;;10336926;28;20449;-48
2021/03/25 20:11:12;;;;;;;2.47;0.50;;;8.60;99.90;;;;;;10343643;28;20514;-49
2021/03/25 20:16:33;;;;;;;4.25;0.75;;;8.50;99.90;;;;;;10344361;28;20060;-49
2021/03/25 20:21:54;;;;;;;3.85;1.35;;;8.50;99.90;;;;;;10321753;28;20132;-48
2021/03/25 20:27:16;;;;;;;1.48;0.63;;;8.40;99.90;;;;;;10344609;28;20049;-49
2021/03/25 20:32:37;;;;;;;5.30;0.63;;;8.20;99.90;;;;;;10328153;28;20489;-49
2021/03/25 20:37:58;;;;;;;1.70;0.50;;;8.10;99.90;;;;;;10345202;28;20159;-49
2021/03/25 20:43:21;;;;;;;5.47;1.17;;;8.00;99.90;;;;;;10344384;28;20041;-48
2021/03/25 20:48:42;;;;;;;1.63;0.43;;;7.90;99.90;;;;;;10333608;28;20495;-48
2021/03/25 20:54:04;;;;;;;1.90;0.80;;;8.00;99.90;;;;;;10318289;28;20065;-49
2021/03/25 20:59:25;;;;;;;1.77;0.57;;;7.90;99.90;;;;;;10301370;28;20127;-48
2021/03/25 21:04:46;;;;;;;3.22;0.65;;;7.90;99.90;;;;;;10337098;28;20123;-48
2021/03/25 21:10:08;;;;;;;0.75;0.20;;;7.90;99.90;;;;;;10341375;28;20475;-48
2021/03/25 21:15:39;;;;;;;1.75;0.32;;;7.90;99.90;;;;;;10340502;28;20489;-48
2021/03/25 21:21:05;;;;;;;0.88;0.30;;;7.80;99.90;;;;;;10342979;28;20064;-48
2021/03/25 21:26:26;;;;;;;5.72;1.08;;;7.70;99.90;;;;;;10343853;28;20071;-49
2021/03/25 21:31:47;;;;;;;0.75;0.28;;;7.70;99.90;;;;;;10331786;28;20044;-48
2021/03/25 21:37:07;;;;;;;0.65;0.30;;;7.70;99.90;;;;;;10332303;28;20110;-48
2021/03/25 21:42:28;;;;;;;1.58;0.40;;;7.80;99.90;;;;;;10316559;28;20333;-48
2021/03/25 21:47:49;;;;;;;1.65;0.75;;;7.80;99.90;;;;;;10333188;28;20494;-49
2021/03/25 21:53:30;;;;;;;2.35;0.65;;;7.90;99.90;;;;;;10306289;28;20038;-49
2021/03/25 21:58:51;;;;;;;2.38;0.50;;;8.00;99.90;;;;;;10345965;28;20041;-48
2021/03/25 22:04:12;;;;;;;4.40;0.88;;;8.10;99.90;;;;;;10344065;28;20041;-48
2021/03/25 22:09:33;;;;;;;2.85;1.02;;;8.00;99.90;;;;;;10357085;28;20048;-48
2021/03/25 22:14:54;;;;;;;1.55;0.60;;;8.10;99.90;;;;;;10366029;28;20096;-48
2021/03/25 22:20:18;;;;;;;0.60;0.30;;;8.10;99.90;;;;;;10361706;28;20034;-48
2021/03/25 22:25:40;;;;;;;1.15;0.40;;;8.00;99.90;;;;;;10364832;28;20054;-49
2021/03/25 22:31:02;;;;;;;3.42;0.52;;;8.00;99.90;;;;;;10362786;28;20065;-48
2021/03/25 22:36:23;;;;;;;3.20;0.60;;;7.90;99.90;;;;;;10370615;28;20040;-49
2021/03/25 22:41:44;;;;;;;1.52;0.57;;;7.90;99.90;;;;;;10364654;28;20104;-49
2021/03/25 22:47:05;;;;;;;0.98;0.45;;;7.80;99.90;;;;;;10365115;28;20045;-48
2021/03/25 22:52:26;;;;;;;4.00;0.65;;;7.80;99.90;;;;;;10370437;28;20450;-48
2021/03/25 22:57:47;;;;;;;3.40;0.82;;;7.90;99.90;;;;;;10372498;28;20042;-49
2021/03/25 23:03:20;;;;;;;4.30;1.92;;;8.00;99.90;;;;;;10370544;28;20121;-49
2021/03/25 23:08:42;;;;;;;6.00;1.17;;;7.90;99.90;;;;;;10370893;28;20041;-48
2021/03/25 23:14:05;;;;;;;0.95;0.47;;;8.00;99.90;;;;;;10374893;28;20523;-48
2021/03/25 23:19:28;;;;;;;6.05;0.57;;;7.90;99.90;;;;;;10367690;28;20110;-49
2021/03/25 23:24:51;;;;;;;1.65;0.77;;;8.00;99.90;;;;;;10367965;28;20038;-49
2021/03/25 23:30:19;;;;;;;2.10;1.20;;;8.00;99.90;;;;;;10370003;28;20248;-48
2021/03/25 23:35:40;;;;;;;1.90;0.75;;;8.00;99.90;;;;;;10348135;28;20184;-48
2021/03/25 23:41:04;;;;;;;2.80;0.70;;;7.90;99.90;;;;;;10331974;28;20083;-48
2021/03/25 23:46:25;;;;;;;2.92;1.20;;;8.00;99.90;;;;;;10365045;28;20046;-49
2021/03/25 23:51:47;;;;;;;2.13;0.90;;;7.90;99.90;;;;;;10351524;28;20073;-49
2021/03/25 23:57:11;;;;;;;2.97;0.90;;;7.80;99.90;;;;;;10361342;28;20072;-48
